sensor_id;sensor_type;location;lat;lon;timestamp;P1;durP1;ratioP1;P2;durP2;ratioP2
1829;SDS011;914;48.118;11.600;2022-12-20T00:00:46;14.83;;;8.70;;
1829;SDS011;914;48.118;11.600;2022-12-20T00:03:12;13.80;;;9.03;;
1829;SDS011;914;48.118;11.600;2022-12-20T00:05:38;11.73;;;8.27;;
1829;SDS011;914;48.118;11.600;2022-12-20T00:08:05;12.77;;;9.13;;
1829;SDS011;914;48.118;11.600;2022-12-20T00:10:35;13.73;;;8.40;;
1829;SDS011;914;48.118;11.600;2022-12-20T00:13:01;13.27;;;8.90;;
1829;SDS011;914;48.118;11.600;2022-12-20T00:15:27;13.40;;;8.57;;
1829;SDS011;914;48.118;11.600;2022-12-20T00:17:53;12.23;;;8.00;;
1829;SDS011;914;48.118;11.600;2022-12-20T00:20:19;11.67;;;8.13;;
1829;SDS011;914;48.118;11.600;2022-12-20T00:22:45;11.50;;;8.13;;
1829;SDS011;914;48.118;11.600;2022-12-20T00:25:10;12.03;;;7.93;;
1829;SDS011;914;48.118;11.600;2022-12-20T00:27:36;11.73;;;8.27;;
1829;SDS011;914;48.118;11.600;2022-12-20T00:30:02;13.07;;;9.50;;
1829;SDS011;914;48.118;11.600;2022-12-20T00:32:29;10.73;;;8.23;;
1829;SDS011;914;48.118;11.600;2022-12-20T00:34:54;9.77;;;7.27;;
1829;SDS011;914;48.118;11.600;2022-12-20T00:37:20;11.43;;;7.90;;
1829;SDS011;914;48.118;11.600;2022-12-20T00:39:46;12.57;;;7.13;;
1829;SDS011;914;48.118;11.600;2022-12-20T00:42:11;10.30;;;7.03;;
1829;SDS011;914;48.118;11.600;2022-12-20T00:44:37;10.47;;;6.63;;
1829;SDS011;914;48.118;11.600;2022-12-20T00:47:02;9.90;;;6.87;;
1829;SDS011;914;48.118;11.600;2022-12-20T00:49:28;9.63;;;6.73;;
1829;SDS011;914;48.118;11.600;2022-12-20T00:51:54;11.10;;;6.57;;
1829;SDS011;914;48.118;11.600;2022-12-20T00:54:20;8.07;;;6.00;;
1829;SDS011;914;48.118;11.600;2022-12-20T00:56:45;7.90;;;6.10;;
1829;SDS011;914;48.118;11.600;2022-12-20T00:59:11;7.47;;;5.23;;
1829;SDS011;914;48.118;11.600;2022-12-20T01:01:37;7.00;;;5.53;;
1829;SDS011;914;48.118;11.600;2022-12-20T01:04:02;7.83;;;5.60;;
1829;SDS011;914;48.118;11.600;2022-12-20T01:06:29;8.27;;;5.10;;
1829;SDS011;914;48.118;11.600;2022-12-20T01:08:55;7.90;;;5.97;;
1829;SDS011;914;48.118;11.600;2022-12-20T01:11:23;7.47;;;5.80;;
1829;SDS011;914;48.118;11.600;2022-12-20T01:13:51;7.70;;;5.43;;
1829;SDS011;914;48.118;11.600;2022-12-20T01:16:20;6.10;;;5.03;;
1829;SDS011;914;48.118;11.600;2022-12-20T01:19:05;6.90;;;5.57;;
1829;SDS011;914;48.118;11.600;2022-12-20T01:21:32;7.90;;;5.70;;
1829;SDS011;914;48.118;11.600;2022-12-20T01:23:58;8.70;;;6.40;;
1829;SDS011;914;48.118;11.600;2022-12-20T01:26:25;7.43;;;5.13;;
1829;SDS011;914;48.118;11.600;2022-12-20T01:28:53;6.97;;;4.87;;
1829;SDS011;914;48.118;11.600;2022-12-20T01:31:21;6.07;;;5.00;;
1829;SDS011;914;48.118;11.600;2022-12-20T01:33:48;6.53;;;5.00;;
1829;SDS011;914;48.118;11.600;2022-12-20T01:36:22;6.33;;;5.50;;
1829;SDS011;914;48.118;11.600;2022-12-20T01:38:49;6.80;;;5.33;;
1829;SDS011;914;48.118;11.600;2022-12-20T01:41:17;6.93;;;5.33;;
1829;SDS011;914;48.118;11.600;2022-12-20T01:46:14;5.53;;;4.10;;
1829;SDS011;914;48.118;11.600;2022-12-20T01:48:41;5.60;;;3.57;;
1829;SDS011;914;48.118;11.600;2022-12-20T01:51:09;6.40;;;4.47;;
1829;SDS011;914;48.118;11.600;2022-12-20T01:53:35;5.53;;;4.13;;
1829;SDS011;914;48.118;11.600;2022-12-20T01:56:02;4.90;;;4.30;;
1829;SDS011;914;48.118;11.600;2022-12-20T01:58:30;5.13;;;4.07;;
1829;SDS011;914;48.118;11.600;2022-12-20T02:00:57;5.33;;;4.20;;
1829;SDS011;914;48.118;11.600;2022-12-20T02:03:23;5.40;;;3.87;;
1829;SDS011;914;48.118;11.600;2022-12-20T02:05:49;6.17;;;4.10;;
1829;SDS011;914;48.118;11.600;2022-12-20T02:08:16;5.43;;;4.10;;
1829;SDS011;914;48.118;11.600;2022-12-20T02:10:47;5.00;;;3.83;;
1829;SDS011;914;48.118;11.600;2022-12-20T02:13:23;5.90;;;3.47;;
1829;SDS011;914;48.118;11.600;2022-12-20T02:15:55;4.53;;;3.20;;
1829;SDS011;914;48.118;11.600;2022-12-20T02:18:29;4.57;;;3.50;;
1829;SDS011;914;48.118;11.600;2022-12-20T02:23:44;3.50;;;3.20;;
1829;SDS011;914;48.118;11.600;2022-12-20T02:26:45;6.57;;;3.60;;
1829;SDS011;914;48.118;11.600;2022-12-20T02:32:03;3.83;;;3.47;;
1829;SDS011;914;48.118;11.600;2022-12-20T02:34:36;6.53;;;5.10;;
1829;SDS011;914;48.118;11.600;2022-12-20T02:37:04;6.23;;;5.30;;
1829;SDS011;914;48.118;11.600;2022-12-20T02:39:30;5.87;;;4.80;;
1829;SDS011;914;48.118;11.600;2022-12-20T02:42:00;5.93;;;4.63;;
1829;SDS011;914;48.118;11.600;2022-12-20T02:44:31;6.37;;;5.20;;
1829;SDS011;914;48.118;11.600;2022-12-20T02:47:29;8.93;;;6.17;;
1829;SDS011;914;48.118;11.600;2022-12-20T02:50:03;6.80;;;6.10;;
1829;SDS011;914;48.118;11.600;2022-12-20T02:52:31;6.10;;;5.30;;
1829;SDS011;914;48.118;11.600;2022-12-20T02:54:58;7.10;;;6.40;;
1829;SDS011;914;48.118;11.600;2022-12-20T02:57:31;5.73;;;4.67;;
1829;SDS011;914;48.118;11.600;2022-12-20T03:00:16;3.90;;;3.30;;
1829;SDS011;914;48.118;11.600;2022-12-20T03:02:44;5.07;;;3.40;;
1829;SDS011;914;48.118;11.600;2022-12-20T03:05:29;3.43;;;3.10;;
1829;SDS011;914;48.118;11.600;2022-12-20T03:07:57;4.43;;;3.37;;
1829;SDS011;914;48.118;11.600;2022-12-20T03:10:24;4.23;;;3.20;;
1829;SDS011;914;48.118;11.600;2022-12-20T03:12:53;4.07;;;3.10;;
1829;SDS011;914;48.118;11.600;2022-12-20T03:15:18;3.57;;;3.10;;
1829;SDS011;914;48.118;11.600;2022-12-20T03:17:44;4.70;;;3.40;;
1829;SDS011;914;48.118;11.600;2022-12-20T03:20:10;4.13;;;3.50;;
1829;SDS011;914;48.118;11.600;2022-12-20T03:22:36;4.60;;;3.10;;
1829;SDS011;914;48.118;11.600;2022-12-20T03:25:05;4.93;;;4.20;;
1829;SDS011;914;48.118;11.600;2022-12-20T03:27:31;8.03;;;4.83;;
1829;SDS011;914;48.118;11.600;2022-12-20T03:29:57;5.90;;;4.80;;
1829;SDS011;914;48.118;11.600;2022-12-20T03:32:22;4.27;;;3.87;;
1829;SDS011;914;48.118;11.600;2022-12-20T03:34:49;5.07;;;3.27;;
1829;SDS011;914;48.118;11.600;2022-12-20T03:37:14;3.57;;;3.27;;
1829;SDS011;914;48.118;11.600;2022-12-20T03:39:43;3.80;;;3.10;;
1829;SDS011;914;48.118;11.600;2022-12-20T03:42:09;3.73;;;3.00;;
1829;SDS011;914;48.118;11.600;2022-12-20T03:44:35;3.73;;;3.07;;
1829;SDS011;914;48.118;11.600;2022-12-20T03:47:03;3.57;;;3.03;;
1829;SDS011;914;48.118;11.600;2022-12-20T03:49:29;4.63;;;2.90;;
1829;SDS011;914;48.118;11.600;2022-12-20T03:51:55;3.90;;;2.93;;
1829;SDS011;914;48.118;11.600;2022-12-20T03:54:23;3.13;;;2.67;;
1829;SDS011;914;48.118;11.600;2022-12-20T03:56:49;3.30;;;3.00;;
1829;SDS011;914;48.118;11.600;2022-12-20T03:59:15;3.17;;;2.70;;
1829;SDS011;914;48.118;11.600;2022-12-20T04:01:41;4.00;;;3.60;;
1829;SDS011;914;48.118;11.600;2022-12-20T04:04:11;4.63;;;3.30;;
1829;SDS011;914;48.118;11.600;2022-12-20T04:06:41;4.27;;;3.13;;
1829;SDS011;914;48.118;11.600;2022-12-20T04:09:07;6.73;;;3.80;;
1829;SDS011;914;48.118;11.600;2022-12-20T04:11:32;4.90;;;4.00;;
1829;SDS011;914;48.118;11.600;2022-12-20T04:13:58;5.27;;;3.73;;
1829;SDS011;914;48.118;11.600;2022-12-20T04:16:26;4.50;;;3.67;;
1829;SDS011;914;48.118;11.600;2022-12-20T04:18:55;6.07;;;4.30;;
1829;SDS011;914;48.118;11.600;2022-12-20T04:21:21;4.10;;;3.57;;
1829;SDS011;914;48.118;11.600;2022-12-20T04:23:48;3.10;;;2.80;;
1829;SDS011;914;48.118;11.600;2022-12-20T04:26:14;3.27;;;2.73;;
1829;SDS011;914;48.118;11.600;2022-12-20T04:28:40;3.17;;;2.60;;
1829;SDS011;914;48.118;11.600;2022-12-20T04:31:08;3.93;;;3.50;;
1829;SDS011;914;48.118;11.600;2022-12-20T04:33:34;4.40;;;3.80;;
1829;SDS011;914;48.118;11.600;2022-12-20T04:36:01;3.40;;;3.10;;
1829;SDS011;914;48.118;11.600;2022-12-20T04:38:27;4.67;;;3.10;;
1829;SDS011;914;48.118;11.600;2022-12-20T04:40:53;4.30;;;3.63;;
1829;SDS011;914;48.118;11.600;2022-12-20T04:43:19;3.00;;;2.70;;
1829;SDS011;914;48.118;11.600;2022-12-20T04:45:46;2.90;;;2.60;;
1829;SDS011;914;48.118;11.600;2022-12-20T04:48:13;3.77;;;2.47;;
1829;SDS011;914;48.118;11.600;2022-12-20T04:50:39;3.37;;;2.73;;
1829;SDS011;914;48.118;11.600;2022-12-20T04:53:04;3.40;;;2.43;;
1829;SDS011;914;48.118;11.600;2022-12-20T04:55:49;3.77;;;3.17;;
1829;SDS011;914;48.118;11.600;2022-12-20T04:58:15;5.33;;;3.83;;
1829;SDS011;914;48.118;11.600;2022-12-20T05:00:44;5.07;;;4.03;;
1829;SDS011;914;48.118;11.600;2022-12-20T05:03:13;3.93;;;3.40;;
1829;SDS011;914;48.118;11.600;2022-12-20T05:05:38;4.00;;;3.13;;
1829;SDS011;914;48.118;11.600;2022-12-20T05:08:04;5.03;;;4.00;;
1829;SDS011;914;48.118;11.600;2022-12-20T05:10:30;3.80;;;2.97;;
1829;SDS011;914;48.118;11.600;2022-12-20T05:12:59;4.70;;;2.87;;
1829;SDS011;914;48.118;11.600;2022-12-20T05:15:24;4.87;;;2.60;;
1829;SDS011;914;48.118;11.600;2022-12-20T05:17:50;4.20;;;2.57;;
1829;SDS011;914;48.118;11.600;2022-12-20T05:20:16;4.20;;;2.90;;
1829;SDS011;914;48.118;11.600;2022-12-20T05:22:44;2.90;;;2.57;;
1829;SDS011;914;48.118;11.600;2022-12-20T05:25:35;3.00;;;2.70;;
1829;SDS011;914;48.118;11.600;2022-12-20T05:28:28;3.57;;;2.50;;
1829;SDS011;914;48.118;11.600;2022-12-20T05:30:55;3.37;;;2.50;;
1829;SDS011;914;48.118;11.600;2022-12-20T05:33:21;2.80;;;2.60;;
1829;SDS011;914;48.118;11.600;2022-12-20T05:35:48;3.63;;;2.70;;
1829;SDS011;914;48.118;11.600;2022-12-20T05:38:13;2.60;;;2.40;;
1829;SDS011;914;48.118;11.600;2022-12-20T05:40:39;2.40;;;2.07;;
1829;SDS011;914;48.118;11.600;2022-12-20T05:43:11;5.50;;;2.53;;
1829;SDS011;914;48.118;11.600;2022-12-20T05:45:36;4.17;;;2.30;;
1829;SDS011;914;48.118;11.600;2022-12-20T05:48:02;3.07;;;2.30;;
1829;SDS011;914;48.118;11.600;2022-12-20T05:50:28;4.00;;;2.20;;
1829;SDS011;914;48.118;11.600;2022-12-20T05:52:56;5.13;;;2.50;;
1829;SDS011;914;48.118;11.600;2022-12-20T05:55:22;7.37;;;2.93;;
1829;SDS011;914;48.118;11.600;2022-12-20T05:57:48;5.57;;;4.50;;
1829;SDS011;914;48.118;11.600;2022-12-20T06:00:17;6.17;;;3.90;;
1829;SDS011;914;48.118;11.600;2022-12-20T06:02:43;5.33;;;3.50;;
1829;SDS011;914;48.118;11.600;2022-12-20T06:05:09;9.33;;;4.27;;
1829;SDS011;914;48.118;11.600;2022-12-20T06:07:35;5.67;;;4.10;;
1829;SDS011;914;48.118;11.600;2022-12-20T06:10:03;8.97;;;3.57;;
1829;SDS011;914;48.118;11.600;2022-12-20T06:12:33;4.20;;;2.70;;
1829;SDS011;914;48.118;11.600;2022-12-20T06:14:59;4.87;;;2.67;;
1829;SDS011;914;48.118;11.600;2022-12-20T06:17:24;3.60;;;2.60;;
1829;SDS011;914;48.118;11.600;2022-12-20T06:19:50;3.47;;;2.83;;
1829;SDS011;914;48.118;11.600;2022-12-20T06:22:18;4.10;;;3.70;;
1829;SDS011;914;48.118;11.600;2022-12-20T06:24:44;4.30;;;3.70;;
1829;SDS011;914;48.118;11.600;2022-12-20T06:27:10;4.97;;;3.60;;
1829;SDS011;914;48.118;11.600;2022-12-20T06:29:36;5.27;;;3.47;;
1829;SDS011;914;48.118;11.600;2022-12-20T06:32:02;5.87;;;3.00;;
1829;SDS011;914;48.118;11.600;2022-12-20T06:34:29;3.10;;;2.63;;
1829;SDS011;914;48.118;11.600;2022-12-20T06:36:56;4.60;;;3.30;;
1829;SDS011;914;48.118;11.600;2022-12-20T06:39:24;7.07;;;3.23;;
1829;SDS011;914;48.118;11.600;2022-12-20T06:41:50;4.03;;;2.80;;
1829;SDS011;914;48.118;11.600;2022-12-20T06:44:22;6.20;;;4.33;;
1829;SDS011;914;48.118;11.600;2022-12-20T06:46:52;5.63;;;3.53;;
1829;SDS011;914;48.118;11.600;2022-12-20T06:49:20;4.07;;;3.40;;
1829;SDS011;914;48.118;11.600;2022-12-20T06:51:47;3.80;;;3.30;;
1829;SDS011;914;48.118;11.600;2022-12-20T06:54:16;4.53;;;3.60;;
1829;SDS011;914;48.118;11.600;2022-12-20T06:56:41;7.53;;;3.87;;
1829;SDS011;914;48.118;11.600;2022-12-20T06:59:07;6.17;;;3.63;;
1829;SDS011;914;48.118;11.600;2022-12-20T07:01:33;6.10;;;3.20;;
1829;SDS011;914;48.118;11.600;2022-12-20T07:03:59;6.53;;;3.23;;
1829;SDS011;914;48.118;11.600;2022-12-20T07:06:25;4.33;;;3.30;;
1829;SDS011;914;48.118;11.600;2022-12-20T07:08:53;7.27;;;3.57;;
1829;SDS011;914;48.118;11.600;2022-12-20T07:11:23;3.83;;;2.63;;
1829;SDS011;914;48.118;11.600;2022-12-20T07:13:53;4.97;;;2.90;;
1829;SDS011;914;48.118;11.600;2022-12-20T07:16:25;8.53;;;3.00;;
1829;SDS011;914;48.118;11.600;2022-12-20T07:18:52;8.47;;;3.27;;
1829;SDS011;914;48.118;11.600;2022-12-20T07:21:18;4.80;;;3.17;;
1829;SDS011;914;48.118;11.600;2022-12-20T07:23:47;4.63;;;2.43;;
1829;SDS011;914;48.118;11.600;2022-12-20T07:26:13;7.13;;;4.50;;
1829;SDS011;914;48.118;11.600;2022-12-20T07:28:39;7.13;;;3.90;;
1829;SDS011;914;48.118;11.600;2022-12-20T07:31:06;8.47;;;4.10;;
1829;SDS011;914;48.118;11.600;2022-12-20T07:33:32;4.40;;;3.13;;
1829;SDS011;914;48.118;11.600;2022-12-20T07:36:02;4.53;;;3.20;;
1829;SDS011;914;48.118;11.600;2022-12-20T07:38:29;4.50;;;3.10;;
1829;SDS011;914;48.118;11.600;2022-12-20T07:40:54;5.87;;;3.87;;
1829;SDS011;914;48.118;11.600;2022-12-20T07:43:20;6.33;;;4.60;;
1829;SDS011;914;48.118;11.600;2022-12-20T07:45:46;12.10;;;7.03;;
1829;SDS011;914;48.118;11.600;2022-12-20T07:48:19;13.03;;;7.50;;
1829;SDS011;914;48.118;11.600;2022-12-20T07:50:44;12.67;;;7.27;;
1829;SDS011;914;48.118;11.600;2022-12-20T07:53:10;10.20;;;7.33;;
1829;SDS011;914;48.118;11.600;2022-12-20T07:55:36;14.97;;;9.53;;
1829;SDS011;914;48.118;11.600;2022-12-20T07:58:04;16.00;;;10.20;;
1829;SDS011;914;48.118;11.600;2022-12-20T08:00:33;8.70;;;4.67;;
1829;SDS011;914;48.118;11.600;2022-12-20T08:03:03;7.33;;;4.20;;
1829;SDS011;914;48.118;11.600;2022-12-20T08:05:39;7.63;;;5.00;;
1829;SDS011;914;48.118;11.600;2022-12-20T08:08:08;5.70;;;3.60;;
1829;SDS011;914;48.118;11.600;2022-12-20T08:10:35;5.17;;;3.27;;
1829;SDS011;914;48.118;11.600;2022-12-20T08:13:02;6.10;;;3.43;;
1829;SDS011;914;48.118;11.600;2022-12-20T08:15:29;9.13;;;3.73;;
1829;SDS011;914;48.118;11.600;2022-12-20T08:17:56;6.73;;;3.30;;
1829;SDS011;914;48.118;11.600;2022-12-20T08:20:22;4.97;;;3.60;;
1829;SDS011;914;48.118;11.600;2022-12-20T08:22:47;13.37;;;3.93;;
1829;SDS011;914;48.118;11.600;2022-12-20T08:25:13;7.93;;;4.07;;
1829;SDS011;914;48.118;11.600;2022-12-20T08:27:39;8.13;;;4.23;;
1829;SDS011;914;48.118;11.600;2022-12-20T08:30:04;12.43;;;5.37;;
1829;SDS011;914;48.118;11.600;2022-12-20T08:32:32;14.03;;;6.50;;
1829;SDS011;914;48.118;11.600;2022-12-20T08:34:58;17.93;;;8.47;;
1829;SDS011;914;48.118;11.600;2022-12-20T08:37:24;10.97;;;5.10;;
1829;SDS011;914;48.118;11.600;2022-12-20T08:39:49;7.73;;;4.20;;
1829;SDS011;914;48.118;11.600;2022-12-20T08:42:15;7.80;;;4.77;;
1829;SDS011;914;48.118;11.600;2022-12-20T08:44:40;11.77;;;4.63;;
1829;SDS011;914;48.118;11.600;2022-12-20T08:47:06;13.10;;;4.93;;
1829;SDS011;914;48.118;11.600;2022-12-20T08:49:32;9.10;;;4.17;;
1829;SDS011;914;48.118;11.600;2022-12-20T08:51:57;10.77;;;4.17;;
1829;SDS011;914;48.118;11.600;2022-12-20T08:54:23;6.40;;;3.97;;
1829;SDS011;914;48.118;11.600;2022-12-20T08:56:49;4.37;;;3.50;;
1829;SDS011;914;48.118;11.600;2022-12-20T08:59:14;7.40;;;3.57;;
1829;SDS011;914;48.118;11.600;2022-12-20T09:01:40;4.80;;;3.70;;
1829;SDS011;914;48.118;11.600;2022-12-20T09:04:06;6.40;;;3.57;;
1829;SDS011;914;48.118;11.600;2022-12-20T09:06:35;5.80;;;3.30;;
1829;SDS011;914;48.118;11.600;2022-12-20T09:09:01;4.60;;;3.53;;
1829;SDS011;914;48.118;11.600;2022-12-20T09:11:27;8.43;;;3.50;;
1829;SDS011;914;48.118;11.600;2022-12-20T09:13:54;6.80;;;3.60;;
1829;SDS011;914;48.118;11.600;2022-12-20T09:16:22;3.37;;;3.07;;
1829;SDS011;914;48.118;11.600;2022-12-20T09:18:50;4.57;;;3.10;;
1829;SDS011;914;48.118;11.600;2022-12-20T09:21:17;4.23;;;3.27;;
1829;SDS011;914;48.118;11.600;2022-12-20T09:23:44;7.33;;;3.80;;
1829;SDS011;914;48.118;11.600;2022-12-20T09:26:11;4.77;;;3.60;;
1829;SDS011;914;48.118;11.600;2022-12-20T09:28:38;5.00;;;3.30;;
1829;SDS011;914;48.118;11.600;2022-12-20T09:31:05;5.73;;;3.40;;
1829;SDS011;914;48.118;11.600;2022-12-20T09:33:32;5.80;;;3.77;;
1829;SDS011;914;48.118;11.600;2022-12-20T09:35:59;9.43;;;4.67;;
1829;SDS011;914;48.118;11.600;2022-12-20T09:38:26;7.47;;;4.27;;
1829;SDS011;914;48.118;11.600;2022-12-20T09:40:54;8.43;;;4.87;;
1829;SDS011;914;48.118;11.600;2022-12-20T09:43:23;8.03;;;5.00;;
1829;SDS011;914;48.118;11.600;2022-12-20T09:45:53;5.07;;;3.80;;
1829;SDS011;914;48.118;11.600;2022-12-20T09:48:36;7.67;;;3.90;;
1829;SDS011;914;48.118;11.600;2022-12-20T09:51:12;5.50;;;3.70;;
1829;SDS011;914;48.118;11.600;2022-12-20T09:57:00;4.57;;;3.30;;
1829;SDS011;914;48.118;11.600;2022-12-20T09:59:39;5.90;;;3.07;;
1829;SDS011;914;48.118;11.600;2022-12-20T10:02:14;5.27;;;3.27;;
1829;SDS011;914;48.118;11.600;2022-12-20T10:04:44;5.27;;;3.37;;
1829;SDS011;914;48.118;11.600;2022-12-20T10:07:15;3.83;;;3.33;;
1829;SDS011;914;48.118;11.600;2022-12-20T10:10:02;4.53;;;2.80;;
1829;SDS011;914;48.118;11.600;2022-12-20T10:13:11;4.70;;;2.67;;
1829;SDS011;914;48.118;11.600;2022-12-20T10:15:51;4.50;;;2.43;;
1829;SDS011;914;48.118;11.600;2022-12-20T10:21:31;4.53;;;3.23;;
1829;SDS011;914;48.118;11.600;2022-12-20T10:24:12;6.07;;;3.87;;
1829;SDS011;914;48.118;11.600;2022-12-20T10:26:43;8.17;;;4.40;;
1829;SDS011;914;48.118;11.600;2022-12-20T10:29:13;12.00;;;7.73;;
1829;SDS011;914;48.118;11.600;2022-12-20T10:31:38;11.40;;;7.37;;
1829;SDS011;914;48.118;11.600;2022-12-20T10:34:04;7.70;;;5.33;;
1829;SDS011;914;48.118;11.600;2022-12-20T10:36:32;9.53;;;6.07;;
1829;SDS011;914;48.118;11.600;2022-12-20T10:39:04;12.27;;;6.27;;
1829;SDS011;914;48.118;11.600;2022-12-20T10:41:52;11.33;;;7.67;;
1829;SDS011;914;48.118;11.600;2022-12-20T10:46:51;11.67;;;6.97;;
1829;SDS011;914;48.118;11.600;2022-12-20T10:49:30;9.67;;;6.23;;
1829;SDS011;914;48.118;11.600;2022-12-20T10:51:59;7.90;;;5.67;;
1829;SDS011;914;48.118;11.600;2022-12-20T10:54:30;5.50;;;4.07;;
1829;SDS011;914;48.118;11.600;2022-12-20T10:57:01;7.53;;;3.53;;
1829;SDS011;914;48.118;11.600;2022-12-20T10:59:38;4.13;;;3.07;;
1829;SDS011;914;48.118;11.600;2022-12-20T11:07:27;6.17;;;2.90;;
1829;SDS011;914;48.118;11.600;2022-12-20T11:09:56;5.77;;;3.43;;
1829;SDS011;914;48.118;11.600;2022-12-20T11:12:23;6.10;;;3.50;;
1829;SDS011;914;48.118;11.600;2022-12-20T11:14:49;6.50;;;3.50;;
1829;SDS011;914;48.118;11.600;2022-12-20T11:17:36;5.80;;;3.60;;
1829;SDS011;914;48.118;11.600;2022-12-20T11:20:15;6.43;;;2.80;;
1829;SDS011;914;48.118;11.600;2022-12-20T11:23:17;4.10;;;3.07;;
1829;SDS011;914;48.118;11.600;2022-12-20T11:34:02;5.40;;;3.10;;
1829;SDS011;914;48.118;11.600;2022-12-20T11:45:25;8.30;;;2.60;;
1829;SDS011;914;48.118;11.600;2022-12-20T11:48:27;5.57;;;2.97;;
1829;SDS011;914;48.118;11.600;2022-12-20T11:51:20;3.10;;;2.50;;
1829;SDS011;914;48.118;11.600;2022-12-20T11:54:02;3.87;;;2.53;;
1829;SDS011;914;48.118;11.600;2022-12-20T11:56:50;4.13;;;2.43;;
1829;SDS011;914;48.118;11.600;2022-12-20T11:59:27;7.87;;;2.70;;
1829;SDS011;914;48.118;11.600;2022-12-20T12:02:10;9.30;;;3.47;;
1829;SDS011;914;48.118;11.600;2022-12-20T12:04:59;4.07;;;2.70;;
1829;SDS011;914;48.118;11.600;2022-12-20T12:07:41;3.47;;;2.47;;
1829;SDS011;914;48.118;11.600;2022-12-20T12:18:37;4.80;;;2.80;;
1829;SDS011;914;48.118;11.600;2022-12-20T12:26:36;8.60;;;4.37;;
1829;SDS011;914;48.118;11.600;2022-12-20T12:31:52;6.10;;;4.23;;
1829;SDS011;914;48.118;11.600;2022-12-20T12:34:31;5.53;;;4.03;;
1829;SDS011;914;48.118;11.600;2022-12-20T12:45:36;7.13;;;4.10;;
1829;SDS011;914;48.118;11.600;2022-12-20T12:48:26;7.07;;;4.47;;
1829;SDS011;914;48.118;11.600;2022-12-20T12:51:04;7.43;;;4.73;;
1829;SDS011;914;48.118;11.600;2022-12-20T12:53:35;6.60;;;4.50;;
1829;SDS011;914;48.118;11.600;2022-12-20T13:09:20;6.47;;;4.70;;
1829;SDS011;914;48.118;11.600;2022-12-20T13:12:45;5.93;;;4.20;;
1829;SDS011;914;48.118;11.600;2022-12-20T13:20:20;8.30;;;5.43;;
1829;SDS011;914;48.118;11.600;2022-12-20T13:30:46;10.57;;;5.97;;
1829;SDS011;914;48.118;11.600;2022-12-20T13:33:38;11.47;;;6.53;;
1829;SDS011;914;48.118;11.600;2022-12-20T13:43:55;14.97;;;7.03;;
1829;SDS011;914;48.118;11.600;2022-12-20T13:46:49;27.60;;;6.87;;
1829;SDS011;914;48.118;11.600;2022-12-20T13:49:36;11.83;;;6.23;;
1829;SDS011;914;48.118;11.600;2022-12-20T13:54:43;12.87;;;5.10;;
1829;SDS011;914;48.118;11.600;2022-12-20T13:57:14;12.70;;;5.90;;
1829;SDS011;914;48.118;11.600;2022-12-20T13:59:46;11.33;;;5.30;;
1829;SDS011;914;48.118;11.600;2022-12-20T14:02:23;14.40;;;7.33;;
1829;SDS011;914;48.118;11.600;2022-12-20T14:04:57;11.57;;;7.07;;
1829;SDS011;914;48.118;11.600;2022-12-20T14:07:29;9.20;;;4.90;;
1829;SDS011;914;48.118;11.600;2022-12-20T14:09:59;9.50;;;4.90;;
1829;SDS011;914;48.118;11.600;2022-12-20T14:12:26;10.30;;;5.73;;
1829;SDS011;914;48.118;11.600;2022-12-20T14:14:53;10.60;;;5.67;;
1829;SDS011;914;48.118;11.600;2022-12-20T14:17:27;7.33;;;4.60;;
1829;SDS011;914;48.118;11.600;2022-12-20T14:20:03;6.13;;;4.00;;
1829;SDS011;914;48.118;11.600;2022-12-20T14:22:51;5.20;;;3.93;;
1829;SDS011;914;48.118;11.600;2022-12-20T14:25:42;5.10;;;4.40;;
1829;SDS011;914;48.118;11.600;2022-12-20T14:28:15;10.57;;;4.40;;
1829;SDS011;914;48.118;11.600;2022-12-20T14:30:46;7.50;;;4.27;;
1829;SDS011;914;48.118;11.600;2022-12-20T14:33:19;10.90;;;4.27;;
1829;SDS011;914;48.118;11.600;2022-12-20T14:35:49;6.60;;;4.13;;
1829;SDS011;914;48.118;11.600;2022-12-20T14:38:20;7.37;;;4.40;;
1829;SDS011;914;48.118;11.600;2022-12-20T14:40:48;7.60;;;4.30;;
1829;SDS011;914;48.118;11.600;2022-12-20T14:43:14;6.20;;;5.10;;
1829;SDS011;914;48.118;11.600;2022-12-20T14:45:40;8.53;;;4.70;;
1829;SDS011;914;48.118;11.600;2022-12-20T14:48:11;8.27;;;4.87;;
1829;SDS011;914;48.118;11.600;2022-12-20T14:50:39;8.87;;;5.50;;
1829;SDS011;914;48.118;11.600;2022-12-20T14:53:16;9.60;;;5.27;;
1829;SDS011;914;48.118;11.600;2022-12-20T14:55:46;5.93;;;4.60;;
1829;SDS011;914;48.118;11.600;2022-12-20T15:00:59;8.33;;;4.97;;
1829;SDS011;914;48.118;11.600;2022-12-20T15:03:25;8.17;;;5.30;;
1829;SDS011;914;48.118;11.600;2022-12-20T15:05:52;8.70;;;5.43;;
1829;SDS011;914;48.118;11.600;2022-12-20T15:08:21;7.53;;;5.33;;
1829;SDS011;914;48.118;11.600;2022-12-20T15:10:57;9.73;;;5.47;;
1829;SDS011;914;48.118;11.600;2022-12-20T15:13:39;8.03;;;5.60;;
1829;SDS011;914;48.118;11.600;2022-12-20T15:18:54;9.37;;;5.57;;
1829;SDS011;914;48.118;11.600;2022-12-20T15:21:31;9.87;;;5.27;;
1829;SDS011;914;48.118;11.600;2022-12-20T15:24:00;7.97;;;5.33;;
1829;SDS011;914;48.118;11.600;2022-12-20T15:26:28;7.27;;;4.87;;
1829;SDS011;914;48.118;11.600;2022-12-20T15:28:55;8.43;;;5.30;;
1829;SDS011;914;48.118;11.600;2022-12-20T15:31:22;6.37;;;4.80;;
1829;SDS011;914;48.118;11.600;2022-12-20T15:33:49;9.20;;;4.93;;
1829;SDS011;914;48.118;11.600;2022-12-20T15:36:25;9.10;;;5.57;;
1829;SDS011;914;48.118;11.600;2022-12-20T15:38:53;9.87;;;6.07;;
1829;SDS011;914;48.118;11.600;2022-12-20T15:41:21;9.90;;;6.63;;
1829;SDS011;914;48.118;11.600;2022-12-20T15:43:59;8.53;;;6.47;;
1829;SDS011;914;48.118;11.600;2022-12-20T15:46:29;8.60;;;6.77;;
1829;SDS011;914;48.118;11.600;2022-12-20T15:48:56;11.10;;;7.03;;
1829;SDS011;914;48.118;11.600;2022-12-20T15:51:31;9.73;;;7.33;;
1829;SDS011;914;48.118;11.600;2022-12-20T15:53:59;11.47;;;7.03;;
1829;SDS011;914;48.118;11.600;2022-12-20T15:56:31;11.30;;;7.40;;
1829;SDS011;914;48.118;11.600;2022-12-20T15:58:57;10.33;;;7.73;;
1829;SDS011;914;48.118;11.600;2022-12-20T16:01:23;14.70;;;10.27;;
1829;SDS011;914;48.118;11.600;2022-12-20T16:03:52;21.17;;;12.77;;
1829;SDS011;914;48.118;11.600;2022-12-20T16:06:18;15.27;;;11.97;;
1829;SDS011;914;48.118;11.600;2022-12-20T16:08:44;16.73;;;12.03;;
1829;SDS011;914;48.118;11.600;2022-12-20T16:11:23;17.60;;;12.90;;
1829;SDS011;914;48.118;11.600;2022-12-20T16:13:56;15.50;;;11.87;;
1829;SDS011;914;48.118;11.600;2022-12-20T16:16:24;15.90;;;11.33;;
1829;SDS011;914;48.118;11.600;2022-12-20T16:18:51;16.20;;;9.27;;
1829;SDS011;914;48.118;11.600;2022-12-20T16:21:21;13.43;;;9.83;;
1829;SDS011;914;48.118;11.600;2022-12-20T16:23:49;12.60;;;9.70;;
1829;SDS011;914;48.118;11.600;2022-12-20T16:26:16;11.63;;;8.87;;
1829;SDS011;914;48.118;11.600;2022-12-20T16:28:44;13.33;;;9.20;;
1829;SDS011;914;48.118;11.600;2022-12-20T16:31:28;15.30;;;8.53;;
1829;SDS011;914;48.118;11.600;2022-12-20T16:33:59;14.87;;;8.80;;
1829;SDS011;914;48.118;11.600;2022-12-20T16:36:27;10.73;;;7.73;;
1829;SDS011;914;48.118;11.600;2022-12-20T16:38:53;10.83;;;7.97;;
1829;SDS011;914;48.118;11.600;2022-12-20T16:41:20;12.27;;;8.60;;
1829;SDS011;914;48.118;11.600;2022-12-20T16:43:46;13.40;;;8.63;;
1829;SDS011;914;48.118;11.600;2022-12-20T16:46:14;12.63;;;8.70;;
1829;SDS011;914;48.118;11.600;2022-12-20T16:48:42;11.90;;;8.67;;
1829;SDS011;914;48.118;11.600;2022-12-20T16:53:53;18.57;;;11.17;;
1829;SDS011;914;48.118;11.600;2022-12-20T16:56:21;17.30;;;11.40;;
1829;SDS011;914;48.118;11.600;2022-12-20T16:58:47;14.27;;;10.83;;
1829;SDS011;914;48.118;11.600;2022-12-20T17:01:15;16.27;;;10.93;;
1829;SDS011;914;48.118;11.600;2022-12-20T17:03:45;13.87;;;10.13;;
1829;SDS011;914;48.118;11.600;2022-12-20T17:06:12;19.87;;;11.93;;
1829;SDS011;914;48.118;11.600;2022-12-20T17:08:39;17.97;;;10.33;;
1829;SDS011;914;48.118;11.600;2022-12-20T17:11:25;16.30;;;11.40;;
1829;SDS011;914;48.118;11.600;2022-12-20T17:13:54;18.37;;;12.23;;
1829;SDS011;914;48.118;11.600;2022-12-20T17:16:21;22.40;;;12.83;;
1829;SDS011;914;48.118;11.600;2022-12-20T17:18:48;24.03;;;14.73;;